CheckWX is a tool to help pilots better visualize weather data.  It is not intended as a substitute for an official pre-flight weather briefing.

04:54:00 UTC

RCKH METAR
Kaohsiung International Airport
Kaohsiung City, Taiwan
Current

24 mins ago

RCKH 170430Z 02009KT 340V050 9000 FEW015 BKN025 OVC040 15/09 Q1023 NOSIG RMK A3021
Observed
Feb-17 @ 04:30 UTC
Wind
  • 020° at 9 KTS
Visibility
9,000 meters
Flight Rules
MVFR
Cloud Levels
  • Few at 1,500' AGL
  • Broken at 2,500' AGL
  • Overcast at 4,000' AGL
Temperature
15°C / 59°F
Dewpoint
C / 48°F
Humidity
68%
Altimeter
30.21" Hg
Pressure
1022.92 hPa
Previous

54 mins ago

RCKH 170400Z 01010KT 330V040 9000 SCT015 BKN025 OVC040 14/09 Q1023 NOSIG RMK A3022
Observed
Feb-17 @ 04:00 UTC
Wind
  • 010° at 10 KTS
Visibility
9,000 meters
Flight Rules
MVFR
Cloud Levels
  • Scattered at 1,500' AGL
  • Broken at 2,500' AGL
  • Overcast at 4,000' AGL
Temperature
14°C / 57°F
Dewpoint
C / 48°F
Humidity
72%
Altimeter
30.21" Hg
Pressure
1022.92 hPa
Previous

1 hour ago

RCKH 170330Z 33010KT 310V030 8000 SCT015 BKN030 OVC060 14/09 Q1023 NOSIG RMK A3023
Observed
Feb-17 @ 03:30 UTC
Wind
  • 330° at 10 KTS
Visibility
8,000 meters
Flight Rules
MVFR
Cloud Levels
  • Scattered at 1,500' AGL
  • Broken at 3,000' AGL
  • Overcast at 6,000' AGL
Temperature
14°C / 57°F
Dewpoint
C / 48°F
Humidity
72%
Altimeter
30.21" Hg
Pressure
1022.92 hPa